createdAt,value
2023-05-10T00:00:31.673Z,65
2023-05-10T00:01:31.665Z,66
2023-05-10T00:02:31.852Z,66
2023-05-10T00:03:31.728Z,66
2023-05-10T00:04:31.720Z,66
2023-05-10T00:05:31.650Z,66
2023-05-10T00:06:31.719Z,66
2023-05-10T00:07:31.652Z,66
2023-05-10T00:08:31.642Z,66
2023-05-10T00:09:31.708Z,66
2023-05-10T00:10:31.683Z,66
2023-05-10T00:11:31.664Z,66
2023-05-10T00:12:31.671Z,67
2023-05-10T00:13:31.724Z,67
2023-05-10T00:14:31.674Z,67
2023-05-10T00:15:31.656Z,67
2023-05-10T00:16:31.795Z,67
2023-05-10T00:17:31.715Z,67
2023-05-10T00:18:31.659Z,67
2023-05-10T00:19:31.623Z,67
2023-05-10T00:20:31.669Z,67
2023-05-10T00:21:31.713Z,67
2023-05-10T00:22:31.725Z,67
2023-05-10T00:23:31.735Z,67
2023-05-10T00:24:31.656Z,68
2023-05-10T00:25:31.653Z,68
2023-05-10T00:26:31.684Z,68
2023-05-10T00:27:31.639Z,68
2023-05-10T00:28:31.645Z,68
2023-05-10T00:29:31.652Z,68
2023-05-10T00:30:31.589Z,68
2023-05-10T00:31:31.745Z,68
2023-05-10T00:32:31.753Z,68
2023-05-10T00:33:31.688Z,68
2023-05-10T00:34:31.744Z,68
2023-05-10T00:35:31.906Z,68
2023-05-10T00:36:31.669Z,68
2023-05-10T00:37:31.672Z,68
2023-05-10T00:38:31.656Z,68
2023-05-10T00:39:31.663Z,68
2023-05-10T00:40:31.664Z,68
2023-05-10T00:41:31.681Z,68
2023-05-10T00:42:31.658Z,68
2023-05-10T00:43:31.669Z,68
2023-05-10T00:44:31.667Z,69
2023-05-10T00:45:31.766Z,69
2023-05-10T00:46:31.711Z,69
2023-05-10T00:47:31.679Z,69
2023-05-10T00:48:31.672Z,69
2023-05-10T00:49:31.682Z,69
2023-05-10T00:50:31.650Z,69
2023-05-10T00:51:31.663Z,69
2023-05-10T00:52:31.638Z,69
2023-05-10T00:53:31.682Z,69
2023-05-10T00:54:31.889Z,69
2023-05-10T00:55:31.758Z,69
2023-05-10T00:56:31.688Z,69
2023-05-10T00:57:31.675Z,69
2023-05-10T00:58:31.629Z,69
2023-05-10T00:59:31.719Z,69
2023-05-10T01:00:31.678Z,69
2023-05-10T01:01:31.743Z,69
2023-05-10T01:02:31.719Z,70
2023-05-10T01:03:31.725Z,70
2023-05-10T01:04:31.832Z,70
2023-05-10T01:05:31.749Z,70
2023-05-10T01:06:31.637Z,70
2023-05-10T01:07:31.679Z,70
2023-05-10T01:08:31.770Z,70
2023-05-10T01:09:31.681Z,70
2023-05-10T01:10:31.668Z,70
2023-05-10T01:11:31.657Z,70
2023-05-10T01:12:31.760Z,70
2023-05-10T01:13:31.731Z,70
2023-05-10T01:14:31.685Z,70
2023-05-10T01:15:31.661Z,70
2023-05-10T01:16:31.774Z,70
2023-05-10T01:17:31.729Z,70
2023-05-10T01:18:31.679Z,70
2023-05-10T01:19:31.718Z,70
2023-05-10T01:20:31.684Z,70
2023-05-10T01:21:31.673Z,70
2023-05-10T01:22:31.715Z,71
2023-05-10T01:23:31.709Z,71
2023-05-10T01:24:31.808Z,71
2023-05-10T01:25:31.744Z,71
2023-05-10T01:26:31.698Z,71
2023-05-10T01:27:31.694Z,71
2023-05-10T01:28:31.683Z,71
2023-05-10T01:29:31.661Z,71
2023-05-10T01:30:31.670Z,71
2023-05-10T01:31:31.735Z,71
2023-05-10T01:32:31.710Z,71
2023-05-10T01:33:31.740Z,71
2023-05-10T01:34:31.659Z,72
2023-05-10T01:35:31.802Z,72
2023-05-10T01:36:31.620Z,72
2023-05-10T01:37:31.700Z,72
2023-05-10T01:38:31.691Z,72
2023-05-10T01:39:31.686Z,72
2023-05-10T01:40:31.784Z,72
2023-05-10T01:41:31.764Z,72
2023-05-10T01:42:31.746Z,72
2023-05-10T01:43:31.867Z,72
2023-05-10T01:44:31.750Z,72
2023-05-10T01:45:31.810Z,72
2023-05-10T01:46:31.923Z,72
2023-05-10T01:47:31.844Z,72
2023-05-10T01:48:31.805Z,72
2023-05-10T01:49:31.816Z,72
2023-05-10T01:50:31.804Z,72
2023-05-10T01:51:31.754Z,72
2023-05-10T01:52:31.820Z,72
2023-05-10T01:53:31.747Z,72
2023-05-10T01:54:31.803Z,73
2023-05-10T01:55:31.850Z,73
2023-05-10T01:56:31.841Z,73
2023-05-10T01:57:31.776Z,73
2023-05-10T01:58:31.827Z,73
2023-05-10T01:59:31.642Z,73
2023-05-10T02:00:31.631Z,73
2023-05-10T02:01:31.633Z,73
2023-05-10T02:02:31.724Z,73
2023-05-10T02:03:31.682Z,73
2023-05-10T02:04:31.656Z,73
2023-05-10T02:05:31.644Z,73
2023-05-10T02:06:31.645Z,73
2023-05-10T02:07:31.666Z,73
2023-05-10T02:08:31.641Z,73
2023-05-10T02:09:31.707Z,73
2023-05-10T02:10:31.675Z,73
2023-05-10T02:11:31.646Z,73
2023-05-10T02:12:31.632Z,73
2023-05-10T02:13:31.708Z,73
2023-05-10T02:14:31.676Z,73
2023-05-10T02:15:31.649Z,73
2023-05-10T02:16:31.649Z,73
2023-05-10T02:17:31.688Z,73
2023-05-10T02:18:31.695Z,73
2023-05-10T02:19:31.655Z,73
2023-05-10T02:20:31.630Z,73
2023-05-10T02:21:31.629Z,73
2023-05-10T02:22:31.664Z,73
2023-05-10T02:23:31.659Z,74
2023-05-10T02:24:31.728Z,74
2023-05-10T02:25:31.626Z,74
2023-05-10T02:26:31.635Z,74
2023-05-10T02:27:31.679Z,74
2023-05-10T02:28:31.679Z,73
2023-05-10T02:29:31.688Z,74
2023-05-10T02:30:31.619Z,73
2023-05-10T02:31:31.657Z,74
2023-05-10T02:32:31.671Z,73
2023-05-10T02:33:31.716Z,74
2023-05-10T02:34:31.747Z,74
2023-05-10T02:35:31.726Z,73
2023-05-10T02:36:31.635Z,73
2023-05-10T02:37:31.657Z,73
2023-05-10T02:38:31.633Z,73
2023-05-10T02:39:31.785Z,73
2023-05-10T02:40:31.662Z,74
2023-05-10T02:41:31.719Z,74
2023-05-10T02:42:31.627Z,74
2023-05-10T02:43:31.644Z,74
2023-05-10T02:44:31.640Z,74
2023-05-10T02:45:31.692Z,74
2023-05-10T02:46:31.823Z,75
2023-05-10T02:47:31.689Z,75
2023-05-10T02:48:31.634Z,75
2023-05-10T02:49:31.697Z,75
2023-05-10T02:50:31.640Z,75
2023-05-10T02:51:31.694Z,75
2023-05-10T02:52:31.652Z,76
2023-05-10T02:53:31.689Z,76
2023-05-10T02:54:31.679Z,76
2023-05-10T02:55:31.644Z,76
2023-05-10T02:56:31.614Z,76
2023-05-10T02:57:31.665Z,76
2023-05-10T02:58:31.643Z,76
2023-05-10T02:59:31.700Z,76
2023-05-10T03:00:31.618Z,76
2023-05-10T03:01:31.775Z,76
2023-05-10T03:02:31.684Z,76
2023-05-10T03:03:31.674Z,76
2023-05-10T03:04:31.771Z,76
2023-05-10T03:05:31.678Z,76
2023-05-10T03:06:31.614Z,76
2023-05-10T03:07:31.708Z,76
2023-05-10T03:08:31.647Z,76
2023-05-10T03:09:31.698Z,76
2023-05-10T03:10:31.838Z,76
2023-05-10T03:11:31.735Z,76
2023-05-10T03:12:31.672Z,76
2023-05-10T03:13:31.775Z,76
2023-05-10T03:14:31.678Z,76
2023-05-10T03:15:31.701Z,76
2023-05-10T03:16:31.672Z,76
2023-05-10T03:17:31.904Z,76
2023-05-10T03:18:31.804Z,76
2023-05-10T03:19:31.764Z,76
2023-05-10T03:20:31.765Z,76
2023-05-10T03:21:31.763Z,76
2023-05-10T03:22:31.753Z,76
2023-05-10T03:23:31.748Z,76
2023-05-10T03:24:31.796Z,76
2023-05-10T03:25:31.675Z,76
2023-05-10T03:26:31.671Z,76
2023-05-10T03:27:31.730Z,76
2023-05-10T03:28:31.695Z,76
2023-05-10T03:29:31.658Z,76
2023-05-10T03:30:31.708Z,76
2023-05-10T03:31:31.833Z,76
2023-05-10T03:32:31.787Z,75
2023-05-10T03:33:31.755Z,75
2023-05-10T03:34:31.924Z,75
2023-05-10T03:35:31.709Z,75
2023-05-10T03:36:31.678Z,75
2023-05-10T03:37:31.658Z,75
2023-05-10T03:38:31.792Z,75
2023-05-10T03:39:31.640Z,75
2023-05-10T03:40:31.657Z,75
2023-05-10T03:41:31.707Z,75
2023-05-10T03:42:31.709Z,75
2023-05-10T03:43:31.856Z,75
2023-05-10T03:44:31.783Z,74
2023-05-10T03:45:31.681Z,74
2023-05-10T03:46:31.838Z,74
2023-05-10T03:47:31.673Z,74
2023-05-10T03:48:31.638Z,74
2023-05-10T03:49:31.659Z,74
2023-05-10T03:50:31.742Z,74
2023-05-10T03:51:31.706Z,74
2023-05-10T03:52:31.638Z,74
2023-05-10T03:53:31.705Z,74
2023-05-10T03:54:31.715Z,73
2023-05-10T03:55:31.756Z,73
2023-05-10T03:56:31.608Z,73
2023-05-10T03:57:31.629Z,73
2023-05-10T03:58:31.655Z,73
2023-05-10T03:59:31.640Z,72
2023-05-10T04:00:31.656Z,72
2023-05-10T04:01:31.706Z,72
2023-05-10T04:02:31.768Z,72
2023-05-10T04:03:31.805Z,72
2023-05-10T04:04:31.702Z,72
2023-05-10T04:05:31.625Z,72
2023-05-10T04:06:31.714Z,72
2023-05-10T04:07:31.629Z,71
2023-05-10T04:08:31.700Z,71
2023-05-10T04:09:31.651Z,71
2023-05-10T04:10:31.679Z,71
2023-05-10T04:11:31.650Z,71
2023-05-10T04:12:31.597Z,71
2023-05-10T04:13:31.639Z,70
2023-05-10T04:14:31.664Z,70
2023-05-10T04:15:31.648Z,70
2023-05-10T04:16:31.679Z,70
2023-05-10T04:17:31.694Z,70
2023-05-10T04:18:31.668Z,70
2023-05-10T04:19:31.873Z,70
2023-05-10T04:20:31.665Z,69
2023-05-10T04:21:31.665Z,69
2023-05-10T04:22:31.729Z,69
2023-05-10T04:23:31.659Z,69
2023-05-10T04:24:31.656Z,69
2023-05-10T04:25:31.711Z,69
2023-05-10T04:26:31.647Z,69
2023-05-10T04:27:31.685Z,69
2023-05-10T04:28:31.672Z,69
2023-05-10T04:29:31.621Z,69
2023-05-10T04:30:31.642Z,68
2023-05-10T04:31:31.665Z,68
2023-05-10T04:32:31.660Z,68
2023-05-10T04:33:31.649Z,68
2023-05-10T04:34:31.632Z,68
2023-05-10T04:35:31.663Z,67
2023-05-10T04:36:31.642Z,67
2023-05-10T04:37:31.658Z,67
2023-05-10T04:38:31.686Z,67
2023-05-10T04:39:31.735Z,66
2023-05-10T04:40:31.673Z,66
2023-05-10T04:41:31.728Z,66
2023-05-10T04:42:31.619Z,66
2023-05-10T04:43:31.651Z,66
2023-05-10T04:44:31.611Z,66
2023-05-10T04:45:31.626Z,66
2023-05-10T04:46:31.626Z,66
2023-05-10T04:47:31.688Z,65
2023-05-10T04:48:31.663Z,65
2023-05-10T04:49:31.724Z,65
2023-05-10T04:50:31.649Z,65
2023-05-10T04:51:31.655Z,65
2023-05-10T04:52:31.744Z,65
2023-05-10T04:53:31.632Z,65
2023-05-10T04:54:31.643Z,64
2023-05-10T04:55:31.736Z,64
2023-05-10T04:56:31.626Z,64
2023-05-10T04:57:31.606Z,64
2023-05-10T04:58:31.636Z,64
2023-05-10T04:59:31.685Z,63
2023-05-10T05:00:31.700Z,63
2023-05-10T05:01:31.718Z,63
2023-05-10T05:02:31.702Z,62
2023-05-10T05:03:31.733Z,61
2023-05-10T05:04:31.621Z,62
2023-05-10T05:05:31.641Z,62
2023-05-10T05:06:31.790Z,62
2023-05-10T05:07:31.691Z,62
2023-05-10T05:08:31.625Z,62
2023-05-10T05:09:31.629Z,62
2023-05-10T05:10:31.650Z,62
2023-05-10T05:11:31.660Z,61
2023-05-10T05:12:31.661Z,61
2023-05-10T05:13:31.718Z,61
2023-05-10T05:14:31.657Z,61
2023-05-10T05:15:31.695Z,61
2023-05-10T05:16:31.785Z,61
2023-05-10T05:17:31.656Z,61
2023-05-10T05:18:31.615Z,60
2023-05-10T05:19:31.661Z,59
2023-05-10T05:20:31.629Z,58
2023-05-10T05:21:31.662Z,57
2023-05-10T05:22:31.626Z,56
2023-05-10T05:23:31.749Z,56
2023-05-10T05:24:31.766Z,56
2023-05-10T05:25:31.711Z,56
2023-05-10T05:26:31.629Z,56
2023-05-10T05:27:31.625Z,56
2023-05-10T05:28:31.651Z,55
2023-05-10T05:29:31.656Z,54
2023-05-10T05:30:31.633Z,53
2023-05-10T05:31:31.715Z,55
2023-05-10T05:32:31.667Z,54
2023-05-10T05:33:31.630Z,54
2023-05-10T05:34:31.622Z,53
2023-05-10T05:35:31.651Z,53
2023-05-10T05:36:31.658Z,53
2023-05-10T05:37:31.623Z,53
2023-05-10T05:38:31.612Z,53
2023-05-10T05:39:31.671Z,53
2023-05-10T05:40:31.647Z,52
2023-05-10T05:41:31.769Z,52
2023-05-10T05:42:31.596Z,52
2023-05-10T05:43:31.647Z,51
2023-05-10T05:44:31.640Z,51
2023-05-10T05:45:31.696Z,51
2023-05-10T05:46:31.621Z,51
2023-05-10T05:47:31.688Z,52
2023-05-10T05:48:31.616Z,52
2023-05-10T05:49:31.619Z,51
2023-05-10T05:50:31.600Z,51
2023-05-10T05:51:31.639Z,50
2023-05-10T05:52:31.656Z,51
2023-05-10T05:53:31.596Z,50
2023-05-10T05:54:31.652Z,49
2023-05-10T05:55:31.657Z,50
2023-05-10T05:56:31.648Z,50
2023-05-10T05:57:31.625Z,49
2023-05-10T05:58:31.670Z,50
2023-05-10T05:59:31.636Z,50
2023-05-10T06:00:31.721Z,49
2023-05-10T06:01:31.646Z,49
2023-05-10T06:02:31.721Z,49
2023-05-10T06:03:31.765Z,50
2023-05-10T06:04:31.681Z,49
2023-05-10T06:05:31.631Z,49
2023-05-10T06:06:31.672Z,48
2023-05-10T06:07:31.652Z,48
2023-05-10T06:08:31.710Z,48
2023-05-10T06:09:31.639Z,48
2023-05-10T06:10:32.588Z,48
2023-05-10T06:11:41.274Z,48
2023-05-10T06:12:45.279Z,48
2023-05-10T06:13:49.225Z,49
2023-05-10T06:14:53.211Z,49
2023-05-10T06:15:57.243Z,49
2023-05-10T06:17:01.403Z,48
2023-05-10T06:18:05.239Z,48
2023-05-10T06:19:09.228Z,48
2023-05-10T06:20:13.269Z,49
2023-05-10T06:21:17.281Z,48
2023-05-10T06:22:21.201Z,48
2023-05-10T06:23:25.203Z,49
2023-05-10T06:24:29.262Z,49
2023-05-10T06:25:31.631Z,48
2023-05-10T06:26:31.664Z,48
2023-05-10T06:27:31.670Z,48
2023-05-10T06:28:31.634Z,48
2023-05-10T06:29:31.657Z,47
2023-05-10T06:30:31.732Z,47
2023-05-10T06:31:31.699Z,48
2023-05-10T06:32:31.700Z,48
2023-05-10T06:33:31.635Z,48
2023-05-10T06:34:31.750Z,48
2023-05-10T06:35:31.644Z,48
2023-05-10T06:36:31.660Z,48
2023-05-10T06:37:31.630Z,47
2023-05-10T06:38:31.609Z,47
2023-05-10T06:39:31.632Z,47
2023-05-10T06:40:31.620Z,48
2023-05-10T06:41:31.607Z,48
2023-05-10T06:42:31.589Z,48
2023-05-10T06:43:31.667Z,48
2023-05-10T06:44:31.636Z,47
2023-05-10T06:45:31.814Z,47
2023-05-10T06:46:31.679Z,46
2023-05-10T06:47:31.676Z,46
2023-05-10T06:48:31.636Z,47
2023-05-10T06:49:31.628Z,47
2023-05-10T06:50:31.619Z,47
2023-05-10T06:51:31.630Z,47
2023-05-10T06:52:31.633Z,46
2023-05-10T06:53:31.626Z,46
2023-05-10T06:54:31.619Z,46
2023-05-10T06:55:31.628Z,46
2023-05-10T06:56:31.642Z,46
2023-05-10T06:57:32.344Z,46
2023-05-10T06:58:31.619Z,46
2023-05-10T06:59:31.813Z,46
2023-05-10T07:00:31.804Z,46
2023-05-10T07:01:31.672Z,46
2023-05-10T07:02:31.650Z,45
2023-05-10T07:03:31.645Z,46
2023-05-10T07:04:31.902Z,46
2023-05-10T07:05:31.653Z,46
2023-05-10T07:06:33.960Z,45
2023-05-10T07:07:31.799Z,45
2023-05-10T07:08:31.612Z,45
2023-05-10T07:09:31.736Z,45
2023-05-10T07:10:31.635Z,45
2023-05-10T07:11:31.624Z,44
2023-05-10T07:12:31.659Z,44
2023-05-10T07:13:31.657Z,44
2023-05-10T07:14:31.618Z,43
2023-05-10T07:15:31.644Z,41
2023-05-10T07:16:31.651Z,41
2023-05-10T07:17:31.835Z,41
2023-05-10T07:18:31.655Z,40
2023-05-10T07:19:31.626Z,40
2023-05-10T07:20:31.602Z,41
2023-05-10T07:21:31.705Z,41
2023-05-10T07:22:31.638Z,41
2023-05-10T07:23:31.641Z,41
2023-05-10T07:24:31.636Z,40
2023-05-10T07:25:31.629Z,40
2023-05-10T07:26:31.722Z,40
2023-05-10T07:27:31.661Z,39
2023-05-10T07:28:31.707Z,39
2023-05-10T07:29:31.633Z,38
2023-05-10T07:30:31.694Z,39
2023-05-10T07:31:31.669Z,39
2023-05-10T07:32:31.767Z,39
2023-05-10T07:33:31.692Z,39
2023-05-10T07:34:31.618Z,39
2023-05-10T07:35:31.649Z,39
2023-05-10T07:36:31.609Z,39
2023-05-10T07:37:31.617Z,38
2023-05-10T07:38:31.653Z,37
2023-05-10T07:39:31.646Z,37
2023-05-10T07:40:31.716Z,37
2023-05-10T07:41:31.617Z,37
2023-05-10T07:42:31.621Z,37
2023-05-10T07:43:31.581Z,37
2023-05-10T07:44:31.650Z,37
2023-05-10T07:45:31.665Z,37
2023-05-10T07:46:31.691Z,38
2023-05-10T07:47:31.658Z,38
2023-05-10T07:48:31.607Z,38
2023-05-10T07:49:31.650Z,38
2023-05-10T07:50:31.636Z,38
2023-05-10T07:51:31.605Z,38
2023-05-10T07:52:31.600Z,38
2023-05-10T07:53:31.599Z,38
2023-05-10T07:54:31.690Z,38
2023-05-10T07:55:31.600Z,37
2023-05-10T07:56:31.590Z,37
2023-05-10T07:57:31.583Z,36
2023-05-10T07:58:31.660Z,37
2023-05-10T07:59:31.616Z,35
2023-05-10T08:00:31.616Z,35
2023-05-10T08:01:31.611Z,35
2023-05-10T08:02:31.697Z,35
2023-05-10T08:03:31.736Z,35
2023-05-10T08:04:31.756Z,36
2023-05-10T08:05:32.039Z,35
2023-05-10T08:06:31.615Z,35
2023-05-10T08:07:31.609Z,35
2023-05-10T08:08:31.657Z,34
2023-05-10T08:09:31.679Z,35
2023-05-10T08:10:31.613Z,35
2023-05-10T08:11:33.184Z,35
2023-05-10T08:12:31.605Z,34
2023-05-10T08:13:31.584Z,35
2023-05-10T08:14:31.641Z,34
2023-05-10T08:15:31.622Z,34
2023-05-10T08:16:31.653Z,34
2023-05-10T08:17:31.626Z,34
2023-05-10T08:18:31.715Z,34
2023-05-10T08:19:31.624Z,34
2023-05-10T08:20:31.713Z,33
2023-05-10T08:21:31.587Z,33
2023-05-10T08:22:31.681Z,34
2023-05-10T08:23:31.621Z,33
2023-05-10T08:24:31.721Z,33
2023-05-10T08:25:31.617Z,33
2023-05-10T08:26:31.692Z,33
2023-05-10T08:27:31.617Z,34
2023-05-10T08:28:31.647Z,34
2023-05-10T08:29:38.628Z,33
2023-05-10T08:30:31.556Z,33
2023-05-10T08:31:31.740Z,34
2023-05-10T08:32:31.621Z,34
2023-05-10T08:33:31.659Z,33
2023-05-10T08:34:31.644Z,32
2023-05-10T08:35:31.612Z,32
2023-05-10T08:36:31.696Z,32
2023-05-10T08:37:31.616Z,32
2023-05-10T08:38:31.651Z,32
2023-05-10T08:39:31.746Z,32
2023-05-10T08:40:31.609Z,32
2023-05-10T08:41:31.932Z,32
2023-05-10T08:42:31.637Z,32
2023-05-10T08:43:31.616Z,32
2023-05-10T08:44:31.600Z,31
2023-05-10T08:45:31.577Z,31
2023-05-10T08:46:31.639Z,31
2023-05-10T08:47:31.657Z,32
2023-05-10T08:48:31.608Z,31
2023-05-10T08:49:31.585Z,32
2023-05-10T08:50:31.621Z,31
2023-05-10T08:51:31.612Z,31
2023-05-10T08:52:31.588Z,31
2023-05-10T08:53:31.610Z,31
2023-05-10T08:54:31.607Z,30
2023-05-10T08:55:31.615Z,30
2023-05-10T08:56:31.605Z,30
2023-05-10T08:57:31.601Z,30
2023-05-10T08:58:31.628Z,30
2023-05-10T08:59:31.628Z,29
2023-05-10T09:00:31.651Z,30
2023-05-10T09:01:31.772Z,30
2023-05-10T09:02:31.698Z,30
2023-05-10T09:03:31.636Z,30
2023-05-10T09:04:31.749Z,30
2023-05-10T09:05:31.606Z,30
2023-05-10T09:06:31.629Z,29
2023-05-10T09:07:31.690Z,30
2023-05-10T09:08:31.591Z,30
2023-05-10T09:09:31.693Z,31
2023-05-10T09:10:31.648Z,31
2023-05-10T09:11:31.606Z,30
2023-05-10T09:12:31.595Z,30
2023-05-10T09:13:31.599Z,31
2023-05-10T09:14:31.716Z,31
2023-05-10T09:15:31.615Z,31
2023-05-10T09:16:31.635Z,30
2023-05-10T09:17:31.679Z,29
2023-05-10T09:18:31.606Z,30
2023-05-10T09:19:31.677Z,30
2023-05-10T09:20:31.665Z,30
2023-05-10T09:21:31.637Z,29
2023-05-10T09:22:31.703Z,29
2023-05-10T09:23:31.644Z,30
2023-05-10T09:24:31.571Z,30
2023-05-10T09:25:31.593Z,30
2023-05-10T09:26:31.624Z,30
2023-05-10T09:27:31.612Z,30
2023-05-10T09:28:31.629Z,30
2023-05-10T09:29:31.574Z,30
2023-05-10T09:30:31.615Z,30
2023-05-10T09:31:31.746Z,30
2023-05-10T09:32:31.686Z,30
2023-05-10T09:33:31.626Z,30
2023-05-10T09:34:31.668Z,30
2023-05-10T09:35:31.643Z,30
2023-05-10T09:36:31.604Z,30
2023-05-10T09:37:31.701Z,30
2023-05-10T09:38:31.581Z,30
2023-05-10T09:39:31.599Z,29
2023-05-10T09:40:31.623Z,30
2023-05-10T09:41:31.604Z,30
2023-05-10T09:42:31.690Z,30
2023-05-10T09:43:31.623Z,30
2023-05-10T09:44:31.722Z,30
2023-05-10T09:45:31.733Z,29
2023-05-10T09:46:31.616Z,30
2023-05-10T09:47:31.638Z,29
2023-05-10T09:48:31.586Z,30
2023-05-10T09:49:31.654Z,30
2023-05-10T09:50:31.755Z,30
2023-05-10T09:51:31.646Z,29
2023-05-10T09:52:31.669Z,30
2023-05-10T09:53:31.617Z,29
2023-05-10T09:54:32.624Z,29
2023-05-10T09:55:31.642Z,29
2023-05-10T09:56:31.626Z,29
2023-05-10T09:57:33.393Z,29
2023-05-10T09:58:31.625Z,29
2023-05-10T09:59:31.663Z,29
2023-05-10T10:00:31.601Z,29
2023-05-10T10:01:31.717Z,30
2023-05-10T10:02:31.658Z,29
2023-05-10T10:03:31.666Z,29
2023-05-10T10:04:31.673Z,29
2023-05-10T10:05:31.642Z,29
2023-05-10T10:06:31.647Z,29
2023-05-10T10:07:31.655Z,29
2023-05-10T10:08:31.587Z,29
2023-05-10T10:09:31.646Z,29
2023-05-10T10:10:31.610Z,29
2023-05-10T10:11:31.706Z,29
2023-05-10T10:12:31.605Z,29
2023-05-10T10:13:31.644Z,29
2023-05-10T10:14:31.631Z,29
2023-05-10T10:15:31.599Z,29
2023-05-10T10:16:31.683Z,28
2023-05-10T10:17:31.651Z,28
2023-05-10T10:18:31.612Z,28
2023-05-10T10:19:31.622Z,29
2023-05-10T10:20:31.708Z,29
2023-05-10T10:21:31.623Z,29
2023-05-10T10:22:31.571Z,29
2023-05-10T10:23:31.657Z,28
2023-05-10T10:24:31.698Z,29
2023-05-10T10:25:31.581Z,29
2023-05-10T10:26:31.660Z,29
2023-05-10T10:27:31.585Z,30
2023-05-10T10:28:31.589Z,29
2023-05-10T10:29:31.558Z,29
2023-05-10T10:30:31.618Z,29
2023-05-10T10:31:31.786Z,29
2023-05-10T10:32:31.615Z,29
2023-05-10T10:33:31.684Z,29
2023-05-10T10:34:31.713Z,28
2023-05-10T10:35:31.601Z,28
2023-05-10T10:36:31.587Z,28
2023-05-10T10:37:31.568Z,28
2023-05-10T10:38:31.616Z,29
2023-05-10T10:39:31.608Z,29
2023-05-10T10:40:34.431Z,29
2023-05-10T10:41:31.682Z,29
2023-05-10T10:42:31.649Z,29
2023-05-10T10:43:31.664Z,28
2023-05-10T10:44:31.665Z,29
2023-05-10T10:45:31.600Z,28
2023-05-10T10:46:31.678Z,28
2023-05-10T10:47:31.631Z,28
2023-05-10T10:48:31.695Z,29
2023-05-10T10:49:31.600Z,29
2023-05-10T10:50:31.601Z,28
2023-05-10T10:51:31.624Z,29
2023-05-10T10:52:31.625Z,30
2023-05-10T10:53:31.611Z,29
2023-05-10T10:54:31.629Z,29
2023-05-10T10:55:31.655Z,29
2023-05-10T10:56:31.626Z,29
2023-05-10T10:57:31.600Z,28
2023-05-10T10:58:31.649Z,29
2023-05-10T10:59:31.617Z,29
2023-05-10T11:00:31.762Z,29
2023-05-10T11:01:31.820Z,29
2023-05-10T11:02:31.675Z,29
2023-05-10T11:03:31.597Z,28
2023-05-10T11:04:31.598Z,29
2023-05-10T11:05:31.677Z,29
2023-05-10T11:06:31.612Z,28
2023-05-10T11:07:31.626Z,28
2023-05-10T11:08:31.629Z,27
2023-05-10T11:09:31.601Z,27
2023-05-10T11:10:31.627Z,28
2023-05-10T11:11:31.600Z,28
2023-05-10T11:12:31.652Z,28
2023-05-10T11:13:31.579Z,28
2023-05-10T11:14:31.597Z,28
2023-05-10T11:15:31.622Z,28
2023-05-10T11:16:31.603Z,28
2023-05-10T11:17:31.659Z,28
2023-05-10T11:18:31.636Z,28
2023-05-10T11:19:32.697Z,29
2023-05-10T11:20:44.781Z,29
2023-05-10T11:21:48.725Z,29
2023-05-10T11:22:52.809Z,28
2023-05-10T11:23:56.771Z,28
2023-05-10T11:25:00.915Z,27
2023-05-10T11:26:04.724Z,27
2023-05-10T11:27:08.893Z,27
2023-05-10T11:28:12.750Z,27
2023-05-10T11:29:16.803Z,27
2023-05-10T11:30:20.967Z,28
2023-05-10T11:31:24.960Z,28
2023-05-10T11:32:28.755Z,28
2023-05-10T11:33:31.649Z,28
2023-05-10T11:34:31.580Z,28
2023-05-10T11:35:31.624Z,27
2023-05-10T11:36:31.622Z,28
2023-05-10T11:37:31.646Z,28
2023-05-10T11:38:31.594Z,28
2023-05-10T11:39:31.576Z,29
2023-05-10T11:40:31.637Z,28
2023-05-10T11:41:31.643Z,28
2023-05-10T11:42:31.599Z,27
2023-05-10T11:43:31.588Z,28
2023-05-10T11:44:31.595Z,28
2023-05-10T11:45:31.587Z,29
2023-05-10T11:46:31.657Z,28
2023-05-10T11:47:31.622Z,28
2023-05-10T11:48:31.608Z,27
2023-05-10T11:49:31.619Z,27
2023-05-10T11:50:31.584Z,28
2023-05-10T11:51:31.667Z,28
2023-05-10T11:52:31.641Z,28
2023-05-10T11:53:31.620Z,28
2023-05-10T11:54:31.583Z,28
2023-05-10T11:55:31.579Z,28
2023-05-10T11:56:31.595Z,28
2023-05-10T11:57:31.604Z,28
2023-05-10T11:58:31.634Z,28
2023-05-10T11:59:32.504Z,29
2023-05-10T12:00:44.663Z,29
2023-05-10T12:01:48.677Z,28
2023-05-10T12:02:52.748Z,29
2023-05-10T12:03:56.847Z,29
2023-05-10T12:05:00.780Z,29
2023-05-10T12:06:04.798Z,29
2023-05-10T12:07:08.645Z,29
2023-05-10T12:08:12.702Z,29
2023-05-10T12:09:17.656Z,29
2023-05-10T12:10:21.037Z,29
2023-05-10T12:11:24.681Z,28
2023-05-10T12:12:28.950Z,29
2023-05-10T12:13:31.585Z,29
2023-05-10T12:14:31.575Z,29
2023-05-10T12:15:31.589Z,29
2023-05-10T12:16:31.735Z,29
2023-05-10T12:17:31.584Z,30
2023-05-10T12:18:31.661Z,30
2023-05-10T12:19:31.584Z,30
2023-05-10T12:20:31.582Z,30
2023-05-10T12:21:31.611Z,29
2023-05-10T12:22:31.679Z,30
2023-05-10T12:23:31.673Z,30
2023-05-10T12:24:31.613Z,30
2023-05-10T12:25:31.647Z,29
2023-05-10T12:26:31.706Z,29
2023-05-10T12:27:31.841Z,30
2023-05-10T12:28:31.560Z,29
2023-05-10T12:29:31.595Z,29
2023-05-10T12:30:31.519Z,30
2023-05-10T12:31:31.586Z,29
2023-05-10T12:32:31.599Z,30
2023-05-10T12:33:31.586Z,30
2023-05-10T12:34:31.581Z,30
2023-05-10T12:35:31.640Z,30
2023-05-10T12:36:31.559Z,30
2023-05-10T12:37:31.678Z,30
2023-05-10T12:38:31.605Z,30
2023-05-10T12:39:31.600Z,30
2023-05-10T12:40:31.583Z,30
2023-05-10T12:41:31.667Z,30
2023-05-10T12:42:31.562Z,30
2023-05-10T12:43:31.566Z,29
2023-05-10T12:44:31.613Z,30
2023-05-10T12:45:31.684Z,30
2023-05-10T12:46:31.688Z,30
2023-05-10T12:47:31.646Z,30
2023-05-10T12:48:31.590Z,29
2023-05-10T12:49:31.634Z,29
2023-05-10T12:50:31.569Z,29
2023-05-10T12:51:31.574Z,29
2023-05-10T12:52:31.592Z,29
2023-05-10T12:53:31.625Z,29
2023-05-10T12:54:31.638Z,29
2023-05-10T12:55:31.548Z,30
2023-05-10T12:56:31.611Z,29
2023-05-10T12:57:31.602Z,29
2023-05-10T12:58:36.077Z,29
2023-05-10T12:59:31.599Z,30
2023-05-10T13:00:31.623Z,29
2023-05-10T13:01:31.625Z,29
2023-05-10T13:02:31.560Z,29
2023-05-10T13:03:31.639Z,29
2023-05-10T13:04:31.745Z,30
2023-05-10T13:05:31.592Z,29
2023-05-10T13:06:31.566Z,29
2023-05-10T13:07:31.665Z,30
2023-05-10T13:08:31.678Z,30
2023-05-10T13:09:31.604Z,30
2023-05-10T13:10:31.606Z,30
2023-05-10T13:11:31.601Z,29
2023-05-10T13:12:31.602Z,30
2023-05-10T13:13:31.574Z,30
2023-05-10T13:14:31.589Z,29
2023-05-10T13:15:31.653Z,29
2023-05-10T13:16:31.760Z,29
2023-05-10T13:17:33.562Z,29
2023-05-10T13:18:31.655Z,30
2023-05-10T13:19:31.660Z,30
2023-05-10T13:20:31.572Z,30
2023-05-10T13:21:31.619Z,30
2023-05-10T13:22:39.840Z,30
2023-05-10T13:23:31.637Z,30
2023-05-10T13:24:31.579Z,30
2023-05-10T13:25:31.593Z,30
2023-05-10T13:26:31.577Z,30
2023-05-10T13:27:31.672Z,30
2023-05-10T13:28:31.655Z,30
2023-05-10T13:29:31.613Z,30
2023-05-10T13:30:31.585Z,30
2023-05-10T13:31:31.633Z,30
2023-05-10T13:32:31.563Z,31
2023-05-10T13:33:31.579Z,31
2023-05-10T13:34:31.578Z,31
2023-05-10T13:35:31.555Z,31
2023-05-10T13:36:31.580Z,31
2023-05-10T13:37:31.581Z,30
2023-05-10T13:38:31.565Z,31
2023-05-10T13:39:31.575Z,31
2023-05-10T13:40:31.536Z,31
2023-05-10T13:41:31.598Z,31
2023-05-10T13:42:31.579Z,30
2023-05-10T13:43:31.577Z,30
2023-05-10T13:44:31.617Z,30
2023-05-10T13:45:31.669Z,31
2023-05-10T13:46:31.808Z,31
2023-05-10T13:47:31.636Z,31
2023-05-10T13:48:31.566Z,31
2023-05-10T13:49:31.615Z,31
2023-05-10T13:50:32.646Z,31
2023-05-10T13:51:31.552Z,31
2023-05-10T13:52:31.580Z,31
2023-05-10T13:53:31.601Z,31
2023-05-10T13:54:31.577Z,31
2023-05-10T13:55:31.608Z,31
2023-05-10T13:56:31.576Z,31
2023-05-10T13:57:31.604Z,31
2023-05-10T13:58:31.563Z,32
2023-05-10T13:59:31.579Z,32
2023-05-10T14:00:31.584Z,31
2023-05-10T14:01:31.644Z,31
2023-05-10T14:02:31.732Z,31
2023-05-10T14:03:31.628Z,32
2023-05-10T14:04:31.589Z,31
2023-05-10T14:05:31.599Z,31
2023-05-10T14:06:31.532Z,32
2023-05-10T14:07:31.580Z,31
2023-05-10T14:08:31.599Z,31
2023-05-10T14:09:31.812Z,31
2023-05-10T14:10:31.599Z,31
2023-05-10T14:11:31.563Z,31
2023-05-10T14:12:31.572Z,31
2023-05-10T14:13:31.673Z,31
2023-05-10T14:14:31.569Z,31
2023-05-10T14:15:31.587Z,31
2023-05-10T14:16:31.659Z,30
2023-05-10T14:17:31.693Z,31
2023-05-10T14:18:31.628Z,31